Time;durP1;ratioP1;P1;durP2;ratioP2;P2;SDS_P1;SDS_P2;PMS_P1;PMS_P2;Temp;Humidity;BMP_temperature;BMP_pressure;BME280_temperature;BME280_humidity;BME280_pressure;Samples;Min_cycle;Max_cycle;Signal;HPM_P1;HPM_P2
2022/11/15 00:00:04;;;;;;;22.95;19.67;;;8.20;99.90;;;;;;5087937;28;20043;-75
2022/11/15 00:02:29;;;;;;;23.70;19.33;;;8.20;99.90;;;;;;5087006;28;20061;-74
2022/11/15 00:04:55;;;;;;;21.17;18.55;;;8.20;99.90;;;;;;5087334;28;20108;-74
2022/11/15 00:07:21;;;;;;;25.23;19.90;;;8.20;99.90;;;;;;5082980;28;20040;-75
2022/11/15 00:09:46;;;;;;;24.08;20.60;;;8.20;99.90;;;;;;5087666;28;20135;-75
2022/11/15 00:12:12;;;;;;;28.00;20.52;;;8.30;99.90;;;;;;5085045;28;20506;-74
2022/11/15 00:14:37;;;;;;;27.52;21.50;;;8.30;99.90;;;;;;5082235;28;20100;-74
2022/11/15 00:17:03;;;;;;;27.95;23.10;;;8.30;99.90;;;;;;5087223;28;20136;-74
2022/11/15 00:19:29;;;;;;;27.08;23.08;;;8.30;99.90;;;;;;5087551;28;20407;-74
2022/11/15 00:21:54;;;;;;;25.40;22.65;;;8.30;99.90;;;;;;5077203;28;20107;-74
2022/11/15 00:24:20;;;;;;;26.17;23.40;;;8.40;99.90;;;;;;5085122;28;20570;-75
2022/11/15 00:26:45;;;;;;;28.35;22.65;;;8.40;99.90;;;;;;5089848;28;20047;-74
2022/11/15 00:29:11;;;;;;;25.20;22.45;;;8.40;99.90;;;;;;5085291;28;20028;-73
2022/11/15 00:31:37;;;;;;;24.00;20.50;;;8.40;99.90;;;;;;5084041;28;20066;-75
2022/11/15 00:34:03;;;;;;;25.63;21.60;;;8.40;99.90;;;;;;5085418;28;20161;-73
2022/11/15 00:36:28;;;;;;;25.67;21.35;;;8.50;99.90;;;;;;5083725;28;20075;-74
2022/11/15 00:38:54;;;;;;;25.85;21.67;;;8.40;99.90;;;;;;5087060;28;20959;-74
2022/11/15 00:41:20;;;;;;;27.63;22.55;;;8.50;99.90;;;;;;5087122;28;20046;-74
2022/11/15 00:43:45;;;;;;;25.20;20.90;;;8.50;99.90;;;;;;5076668;28;20036;-74
2022/11/15 00:46:11;;;;;;;26.13;22.25;;;8.50;99.90;;;;;;5084447;28;20095;-74
2022/11/15 00:48:37;;;;;;;25.20;20.83;;;8.50;99.90;;;;;;5088124;28;20119;-74
2022/11/15 00:51:02;;;;;;;26.83;21.42;;;8.50;99.90;;;;;;5074932;28;20430;-74
2022/11/15 00:53:28;;;;;;;26.67;22.45;;;8.50;99.90;;;;;;5092210;28;20059;-74
2022/11/15 00:55:54;;;;;;;26.45;22.48;;;8.50;99.90;;;;;;5079129;28;20055;-74
2022/11/15 00:58:20;;;;;;;26.52;21.67;;;8.50;99.90;;;;;;5081552;28;20097;-74
2022/11/15 01:00:45;;;;;;;26.33;21.83;;;8.50;99.90;;;;;;5082785;28;20613;-74
2022/11/15 01:03:11;;;;;;;29.38;23.10;;;8.50;99.90;;;;;;5086209;28;20550;-75
2022/11/15 01:05:39;;;;;;;28.27;21.42;;;8.50;99.90;;;;;;5083129;28;20126;-74
2022/11/15 01:08:05;;;;;;;25.15;20.83;;;8.60;99.90;;;;;;5076397;28;20051;-74
2022/11/15 01:10:31;;;;;;;26.52;20.92;;;8.60;99.90;;;;;;5083993;28;20088;-74
2022/11/15 01:12:57;;;;;;;25.98;21.50;;;8.50;99.90;;;;;;5087556;28;20079;-74
2022/11/15 01:15:22;;;;;;;26.38;21.45;;;8.50;99.90;;;;;;5087165;28;20520;-74
2022/11/15 01:17:48;;;;;;;25.27;20.05;;;8.60;99.90;;;;;;5085381;28;20036;-75
2022/11/15 01:20:14;;;;;;;24.88;20.70;;;8.60;99.90;;;;;;5083837;28;20050;-74
2022/11/15 01:22:39;;;;;;;22.77;19.42;;;8.60;99.90;;;;;;5083100;28;20126;-74
2022/11/15 01:25:05;;;;;;;24.95;20.45;;;8.60;99.90;;;;;;5087205;28;20046;-74
2022/11/15 01:27:31;;;;;;;24.98;20.10;;;8.60;99.90;;;;;;5080399;28;20044;-73
2022/11/15 01:29:56;;;;;;;26.80;20.65;;;8.60;99.90;;;;;;5070574;28;20068;-74
2022/11/15 01:32:22;;;;;;;25.52;20.05;;;8.60;99.90;;;;;;5084212;28;20040;-74
2022/11/15 01:34:47;;;;;;;24.77;20.20;;;8.60;99.90;;;;;;5087435;28;20419;-75
2022/11/15 01:37:13;;;;;;;24.20;19.15;;;8.60;99.90;;;;;;5078894;28;20033;-74
2022/11/15 01:39:38;;;;;;;24.70;20.20;;;8.60;99.90;;;;;;5075429;28;20052;-74
2022/11/15 01:42:04;;;;;;;26.88;21.27;;;8.60;99.90;;;;;;5084499;28;20494;-74
2022/11/15 01:44:41;;;;;;;24.98;21.27;;;8.60;99.90;;;;;;5087115;28;20048;-74
2022/11/15 01:47:17;;;;;;;24.70;20.45;;;8.60;99.90;;;;;;5070938;28;20040;-74
2022/11/15 01:49:51;;;;;;;25.73;20.23;;;8.60;99.90;;;;;;5117051;27;20051;-74
2022/11/15 01:52:20;;;;;;;25.25;19.80;;;8.60;99.90;;;;;;5083019;28;20035;-73
2022/11/15 01:54:54;;;;;;;24.77;19.33;;;8.60;99.90;;;;;;5080133;28;20056;-74
2022/11/15 01:57:20;;;;;;;30.17;21.35;;;8.60;99.90;;;;;;5083877;28;20096;-73
2022/11/15 01:59:46;;;;;;;26.23;20.58;;;8.60;99.90;;;;;;5085987;28;20032;-73
2022/11/15 02:02:13;;;;;;;25.52;19.58;;;8.60;99.90;;;;;;5087090;28;20048;-73
2022/11/15 02:04:45;;;;;;;27.20;21.23;;;8.60;99.90;;;;;;5084964;28;20044;-71
2022/11/15 02:07:13;;;;;;;26.88;21.35;;;8.60;99.90;;;;;;5074352;28;20426;-73
2022/11/15 02:09:39;;;;;;;28.75;21.52;;;8.60;99.90;;;;;;5076250;28;20065;-73
2022/11/15 02:12:07;;;;;;;29.05;21.92;;;8.60;99.90;;;;;;5113245;27;20127;-72
2022/11/15 02:14:34;;;;;;;29.80;20.55;;;8.60;99.90;;;;;;5081742;28;20040;-72
2022/11/15 02:17:15;;;;;;;28.98;21.38;;;8.60;99.90;;;;;;5119180;27;20048;-73
2022/11/15 02:19:57;;;;;;;28.65;21.30;;;8.70;99.90;;;;;;5086885;28;20147;-73
2022/11/15 02:22:32;;;;;;;30.38;24.92;;;8.60;99.90;;;;;;5085070;28;20048;-73
2022/11/15 02:25:03;;;;;;;30.23;22.10;;;8.70;99.90;;;;;;5085817;28;20048;-73
2022/11/15 02:27:41;;;;;;;33.80;22.50;;;8.60;99.90;;;;;;5085298;28;20038;-72
2022/11/15 02:30:30;;;;;;;35.05;23.23;;;8.70;99.90;;;;;;5119555;28;20127;-73
2022/11/15 02:33:03;;;;;;;36.10;24.35;;;8.70;99.90;;;;;;5082699;28;20075;-73
2022/11/15 02:35:57;;;;;;;34.40;24.10;;;8.70;99.90;;;;;;5083883;28;20048;-72
2022/11/15 02:38:38;;;;;;;35.10;24.33;;;8.70;99.90;;;;;;5084331;28;20052;-72
2022/11/15 02:41:14;;;;;;;36.72;25.73;;;8.70;99.90;;;;;;5079210;28;20043;-72
2022/11/15 02:44:05;;;;;;;34.65;24.65;;;8.80;99.90;;;;;;5074043;28;20059;-72
2022/11/15 02:49:30;;;;;;;38.15;26.52;;;8.70;99.90;;;;;;5072222;28;20165;-72
2022/11/15 02:51:56;;;;;;;37.40;25.17;;;8.80;99.90;;;;;;5076784;28;20044;-73
2022/11/15 02:54:29;;;;;;;36.17;26.40;;;8.70;99.90;;;;;;5079377;28;20048;-72
2022/11/15 02:57:00;;;;;;;35.70;25.52;;;8.80;99.90;;;;;;5082381;28;20044;-72
2022/11/15 02:59:57;;;;;;;36.47;25.52;;;8.80;99.90;;;;;;5083659;28;20521;-72
2022/11/15 03:02:48;;;;;;;40.15;26.08;;;8.80;99.90;;;;;;5086270;28;20093;-73
2022/11/15 03:05:25;;;;;;;35.72;26.15;;;8.80;99.90;;;;;;5112594;28;20282;-72
2022/11/15 03:08:18;;;;;;;38.25;28.80;;;8.80;99.90;;;;;;5086522;28;20055;-72
2022/11/15 03:11:11;;;;;;;40.10;26.70;;;8.80;99.90;;;;;;5080782;28;20058;-72
2022/11/15 03:14:17;;;;;;;44.00;28.52;;;8.80;99.90;;;;;;5081789;28;20108;-72
2022/11/15 03:17:06;;;;;;;43.22;26.25;;;8.90;99.90;;;;;;5070337;28;20040;-72
2022/11/15 03:19:51;;;;;;;42.30;28.13;;;8.80;99.90;;;;;;5113877;28;20072;-73
2022/11/15 03:22:20;;;;;;;41.95;31.30;;;8.90;99.90;;;;;;5073061;28;20072;-73
2022/11/15 03:24:50;;;;;;;45.05;28.92;;;8.90;99.90;;;;;;5115256;28;20055;-72
2022/11/15 03:27:21;;;;;;;47.00;34.35;;;8.90;99.90;;;;;;5108404;28;20128;-72
2022/11/15 03:29:52;;;;;;;61.00;44.67;;;8.90;99.90;;;;;;5106844;28;20056;-73
2022/11/15 03:32:23;;;;;;;61.85;50.00;;;8.90;99.90;;;;;;5071059;28;20083;-73
2022/11/15 03:35:21;;;;;;;62.65;51.63;;;8.90;99.90;;;;;;5070448;28;20067;-73
2022/11/15 03:37:57;;;;;;;69.93;54.38;;;8.90;99.90;;;;;;5083511;28;20060;-72
2022/11/15 03:40:28;;;;;;;61.33;49.00;;;8.90;99.90;;;;;;5072577;28;20126;-72
2022/11/15 03:43:18;;;;;;;68.95;54.53;;;8.90;99.90;;;;;;5089347;28;20032;-73
2022/11/15 03:45:50;;;;;;;69.30;51.08;;;8.90;99.90;;;;;;5087368;28;20036;-73
2022/11/15 03:48:27;;;;;;;57.53;43.20;;;8.90;99.90;;;;;;5088846;28;20114;-73
2022/11/15 03:50:53;;;;;;;57.08;40.13;;;9.00;99.90;;;;;;5084761;28;20040;-72
2022/11/15 03:53:20;;;;;;;52.38;35.95;;;9.00;99.90;;;;;;5087561;28;20741;-72
2022/11/15 03:55:45;;;;;;;51.30;35.33;;;9.00;99.90;;;;;;5086082;28;20445;-73
2022/11/15 03:58:11;;;;;;;50.60;33.25;;;9.00;99.90;;;;;;5077027;28;20094;-71
2022/11/15 04:00:37;;;;;;;56.45;38.17;;;9.00;99.90;;;;;;5118006;27;20082;-72
2022/11/15 04:03:02;;;;;;;49.47;33.75;;;9.00;99.90;;;;;;5118428;27;20062;-73
2022/11/15 04:05:28;;;;;;;53.28;33.58;;;9.10;99.90;;;;;;5076914;28;20048;-73
2022/11/15 04:07:53;;;;;;;54.75;37.13;;;9.00;99.90;;;;;;5086489;28;20456;-72
2022/11/15 04:10:19;;;;;;;60.95;35.30;;;9.10;99.90;;;;;;5087964;28;20496;-73
2022/11/15 04:12:47;;;;;;;58.55;35.80;;;9.10;99.90;;;;;;5082536;28;20471;-73
2022/11/15 04:15:19;;;;;;;52.50;36.92;;;9.10;99.90;;;;;;5085295;28;20043;-72
2022/11/15 04:17:50;;;;;;;49.60;33.63;;;9.10;99.90;;;;;;5121472;27;20082;-73
2022/11/15 04:26:10;;;;;;;47.30;34.05;;;9.10;99.90;;;;;;5084455;28;20055;-71
2022/11/15 04:29:33;;;;;;;53.10;34.13;;;9.10;99.90;;;;;;5086784;28;20052;-72
2022/11/15 04:31:22;;;;;;;49.78;32.50;;;9.10;99.90;;;;;;5086141;28;20043;-72
2022/11/15 04:33:47;;;;;;;48.13;34.75;;;9.10;99.90;;;;;;5086168;28;20040;-72
2022/11/15 04:38:57;;;;;;;52.22;35.00;;;9.20;99.90;;;;;;5072411;28;20365;-73
2022/11/15 04:41:23;;;;;;;50.28;34.22;;;9.20;99.90;;;;;;5082641;28;20048;-72
2022/11/15 04:43:48;;;;;;;50.20;35.88;;;9.20;99.90;;;;;;5084976;28;20044;-72
2022/11/15 04:46:14;;;;;;;49.38;32.03;;;9.20;99.90;;;;;;5085347;28;20566;-72
2022/11/15 04:48:39;;;;;;;46.03;33.85;;;9.30;99.90;;;;;;5074947;28;22222;-72
2022/11/15 04:51:05;;;;;;;47.88;32.72;;;9.10;99.90;;;;;;5076944;28;20036;-73
2022/11/15 04:53:31;;;;;;;50.15;32.88;;;9.30;99.90;;;;;;5083384;28;20059;-73
2022/11/15 04:55:56;;;;;;;45.10;31.95;;;9.30;99.90;;;;;;5071362;28;20047;-73
2022/11/15 04:58:22;;;;;;;48.25;32.90;;;9.30;99.90;;;;;;5078098;28;20038;-74
2022/11/15 05:00:47;;;;;;;48.80;35.05;;;9.30;99.90;;;;;;5084315;28;20052;-75
2022/11/15 05:05:58;;;;;;;43.33;31.08;;;9.30;99.90;;;;;;5089359;28;20036;-74
2022/11/15 05:08:24;;;;;;;44.53;34.95;;;9.40;99.90;;;;;;5119881;27;20052;-74
2022/11/15 05:10:50;;;;;;;45.97;31.15;;;9.30;99.90;;;;;;5085868;28;20090;-74
2022/11/15 05:13:16;;;;;;;46.78;32.80;;;9.30;99.90;;;;;;5085346;28;20040;-74
2022/11/15 05:15:41;;;;;;;43.08;32.15;;;9.40;99.90;;;;;;5074466;28;20043;-74
2022/11/15 05:18:07;;;;;;;42.70;31.70;;;9.40;99.90;;;;;;5083184;28;20689;-74
2022/11/15 05:20:32;;;;;;;40.60;29.75;;;9.40;99.90;;;;;;5078620;28;20387;-74
2022/11/15 05:22:58;;;;;;;49.92;37.67;;;9.40;99.90;;;;;;5086099;28;20044;-74
2022/11/15 05:25:26;;;;;;;44.50;32.67;;;9.40;99.90;;;;;;5071647;28;20090;-74
2022/11/15 05:27:52;;;;;;;49.17;35.22;;;9.40;99.90;;;;;;5082669;28;20056;-74
2022/11/15 05:30:18;;;;;;;50.67;34.38;;;9.40;99.90;;;;;;5083033;28;20044;-74
2022/11/15 05:32:44;;;;;;;66.82;44.67;;;9.40;99.90;;;;;;5087270;28;20122;-74
2022/11/15 05:35:17;;;;;;;89.85;57.92;;;9.50;99.90;;;;;;5117969;27;20040;-74
2022/11/15 05:37:43;;;;;;;98.70;57.95;;;9.50;99.90;;;;;;5081256;28;20127;-74
2022/11/15 05:40:09;;;;;;;163.40;93.22;;;9.50;99.90;;;;;;5082175;28;20451;-74
2022/11/15 05:42:34;;;;;;;139.15;82.88;;;9.50;99.90;;;;;;5085692;28;20055;-74
2022/11/15 05:45:04;;;;;;;98.45;66.88;;;9.50;99.90;;;;;;5080865;28;20119;-74
2022/11/15 05:47:30;;;;;;;108.85;69.57;;;9.60;99.90;;;;;;5118393;27;20052;-74
2022/11/15 05:49:57;;;;;;;98.28;68.03;;;9.60;99.90;;;;;;5086143;28;20044;-74
2022/11/15 05:52:28;;;;;;;93.67;65.10;;;9.70;99.90;;;;;;5082465;28;20040;-74
2022/11/15 05:54:55;;;;;;;177.35;118.93;;;9.70;99.90;;;;;;5080129;28;20789;-74
2022/11/15 05:57:21;;;;;;;179.27;123.55;;;9.70;99.90;;;;;;5078519;28;20039;-74
2022/11/15 05:59:47;;;;;;;176.05;108.82;;;9.70;99.90;;;;;;5118480;27;20523;-74
2022/11/15 06:02:12;;;;;;;154.02;106.28;;;9.80;99.90;;;;;;5118345;27;20421;-74
2022/11/15 06:04:38;;;;;;;118.18;78.72;;;9.80;99.90;;;;;;5118965;27;20044;-74
2022/11/15 06:07:03;;;;;;;110.47;73.78;;;9.90;99.90;;;;;;5085296;28;20044;-74
2022/11/15 06:09:29;;;;;;;88.30;63.78;;;9.90;99.90;;;;;;5078734;28;20036;-74
2022/11/15 06:11:55;;;;;;;73.32;53.47;;;9.90;99.90;;;;;;5086401;28;20126;-73
2022/11/15 06:14:20;;;;;;;74.38;51.83;;;10.00;99.90;;;;;;5083787;28;20407;-73
2022/11/15 06:16:46;;;;;;;74.60;54.88;;;10.00;99.90;;;;;;5068753;28;20055;-73
2022/11/15 06:19:11;;;;;;;74.20;56.58;;;10.10;99.90;;;;;;5117161;28;20119;-74
2022/11/15 06:21:37;;;;;;;66.13;51.17;;;10.10;99.90;;;;;;5076752;28;20139;-73
2022/11/15 06:24:04;;;;;;;64.05;47.67;;;10.10;99.90;;;;;;5092410;28;20090;-74
2022/11/15 06:26:30;;;;;;;69.55;53.22;;;10.10;99.90;;;;;;5082778;28;20054;-73
2022/11/15 06:28:55;;;;;;;78.90;58.70;;;10.10;99.90;;;;;;5086796;28;20123;-74
2022/11/15 06:31:21;;;;;;;62.78;48.10;;;10.10;99.90;;;;;;5080155;28;20132;-73
2022/11/15 06:33:49;;;;;;;46.55;37.13;;;10.20;99.90;;;;;;5117106;28;20410;-73
2022/11/15 06:36:16;;;;;;;47.03;36.60;;;10.10;99.90;;;;;;5075264;28;20044;-75
2022/11/15 06:38:43;;;;;;;57.30;42.35;;;10.20;99.90;;;;;;5083533;28;20040;-74
2022/11/15 06:41:09;;;;;;;51.30;40.45;;;10.10;99.90;;;;;;5083851;28;20055;-75
2022/11/15 06:43:36;;;;;;;51.10;37.28;;;10.20;99.90;;;;;;5084757;28;20757;-74
2022/11/15 06:46:03;;;;;;;43.67;35.50;;;10.30;99.90;;;;;;5109223;27;20050;-74
2022/11/15 06:48:30;;;;;;;40.80;31.40;;;10.30;99.90;;;;;;5117461;28;20480;-74
2022/11/15 06:50:58;;;;;;;38.50;30.63;;;10.30;99.90;;;;;;5119120;28;20039;-74
2022/11/15 06:53:24;;;;;;;32.78;29.30;;;10.30;99.90;;;;;;5119242;28;20466;-74
2022/11/15 06:55:57;;;;;;;34.97;28.67;;;10.30;99.90;;;;;;5085626;28;20055;-77
2022/11/15 06:58:23;;;;;;;34.83;29.85;;;10.40;99.90;;;;;;5085126;28;20036;-75
2022/11/15 07:00:52;;;;;;;34.85;28.40;;;10.30;99.90;;;;;;5079610;28;20052;-74
2022/11/15 07:03:18;;;;;;;33.67;27.58;;;10.30;99.90;;;;;;5082092;28;20572;-74
2022/11/15 07:05:54;;;;;;;32.30;27.58;;;10.30;99.90;;;;;;5084951;28;20162;-74
2022/11/15 07:08:22;;;;;;;33.78;28.33;;;10.40;99.90;;;;;;5089238;28;20051;-75
2022/11/15 07:10:48;;;;;;;32.97;28.00;;;10.40;99.90;;;;;;5084657;28;20052;-74
2022/11/15 07:13:14;;;;;;;34.92;28.45;;;10.40;99.90;;;;;;5085587;28;20549;-74
2022/11/15 07:15:40;;;;;;;32.75;27.92;;;10.40;99.90;;;;;;5081739;28;20036;-74
2022/11/15 07:18:06;;;;;;;33.28;28.00;;;10.40;99.90;;;;;;5074632;28;20044;-75
2022/11/15 07:20:32;;;;;;;34.88;29.33;;;10.40;99.90;;;;;;5088087;28;20151;-75
2022/11/15 07:23:05;;;;;;;32.47;27.27;;;10.40;99.90;;;;;;5084445;28;20044;-75
2022/11/15 07:25:31;;;;;;;35.05;28.35;;;10.40;99.90;;;;;;5076482;28;20788;-73
2022/11/15 07:27:58;;;;;;;33.78;28.20;;;10.40;99.90;;;;;;5117268;27;20080;-75
2022/11/15 07:30:25;;;;;;;32.63;28.67;;;10.40;99.90;;;;;;5073757;28;20536;-74
2022/11/15 07:32:56;;;;;;;34.15;28.67;;;10.40;99.90;;;;;;5082848;28;20110;-74
2022/11/15 07:35:22;;;;;;;32.60;28.13;;;10.40;99.90;;;;;;5087191;28;20051;-75
2022/11/15 07:37:56;;;;;;;32.70;28.70;;;10.40;99.90;;;;;;5074595;28;20045;-75
2022/11/15 07:40:22;;;;;;;33.58;29.48;;;10.50;99.90;;;;;;5083116;28;20093;-74
2022/11/15 07:42:56;;;;;;;33.60;28.80;;;10.50;99.90;;;;;;5079879;28;20052;-75
2022/11/15 07:45:26;;;;;;;34.75;29.92;;;10.50;99.90;;;;;;5081332;28;20037;-75
2022/11/15 07:47:56;;;;;;;37.13;30.38;;;10.60;99.90;;;;;;5109841;27;20040;-74
2022/11/15 07:50:22;;;;;;;36.13;29.92;;;10.50;99.90;;;;;;5077465;28;20047;-75
2022/11/15 07:52:57;;;;;;;34.45;30.30;;;10.60;99.90;;;;;;5084221;28;20057;-75
2022/11/15 07:55:23;;;;;;;34.05;29.85;;;10.60;99.90;;;;;;5078889;28;20063;-75
2022/11/15 07:57:50;;;;;;;35.40;29.83;;;10.60;99.90;;;;;;5088769;28;20395;-75
2022/11/15 08:00:16;;;;;;;36.78;30.27;;;10.60;99.90;;;;;;5081827;28;20067;-74
2022/11/15 08:02:41;;;;;;;37.15;32.10;;;10.60;99.90;;;;;;5092574;28;20044;-75
2022/11/15 08:05:07;;;;;;;40.92;31.58;;;10.60;99.90;;;;;;5085035;28;20047;-74
2022/11/15 08:07:33;;;;;;;39.67;32.05;;;10.60;99.90;;;;;;5080630;28;20048;-75
2022/11/15 08:10:03;;;;;;;41.17;33.15;;;10.60;99.90;;;;;;5086242;28;20100;-76
2022/11/15 08:12:32;;;;;;;44.45;34.17;;;10.70;99.90;;;;;;5079051;28;20052;-81
2022/11/15 08:14:58;;;;;;;41.65;35.75;;;10.70;99.90;;;;;;5085859;28;20051;-77
2022/11/15 08:17:24;;;;;;;45.40;35.92;;;10.70;99.90;;;;;;5084967;28;20086;-80
2022/11/15 08:19:50;;;;;;;41.47;34.25;;;10.70;99.90;;;;;;5082587;28;20101;-81
2022/11/15 08:22:16;;;;;;;41.85;32.83;;;10.70;99.90;;;;;;5088738;28;20075;-77
2022/11/15 08:24:41;;;;;;;42.83;34.90;;;10.70;99.90;;;;;;5084222;28;20060;-76
2022/11/15 08:27:14;;;;;;;42.65;34.95;;;10.70;99.90;;;;;;5084338;28;20039;-75
2022/11/15 08:29:44;;;;;;;43.10;35.75;;;10.70;99.90;;;;;;5072381;28;20052;-78
2022/11/15 08:32:10;;;;;;;43.10;33.47;;;10.80;99.90;;;;;;5105280;27;20044;-77
2022/11/15 08:34:37;;;;;;;42.63;34.10;;;10.80;99.90;;;;;;5084639;28;20510;-78
2022/11/15 08:37:03;;;;;;;41.00;34.17;;;10.80;99.90;;;;;;5082624;28;20097;-75
2022/11/15 08:39:29;;;;;;;43.08;34.50;;;10.80;99.90;;;;;;5079685;28;20044;-75
2022/11/15 08:41:54;;;;;;;40.60;34.28;;;10.80;99.90;;;;;;5111056;27;20040;-75
2022/11/15 08:44:20;;;;;;;43.30;35.92;;;10.80;99.90;;;;;;5121532;27;20036;-74
2022/11/15 08:46:46;;;;;;;45.15;36.22;;;10.80;99.90;;;;;;5071717;28;20041;-76
2022/11/15 08:49:12;;;;;;;44.65;35.30;;;10.80;99.90;;;;;;5086631;28;20044;-76
2022/11/15 08:51:37;;;;;;;45.10;36.03;;;10.90;99.90;;;;;;5085887;28;20054;-78
2022/11/15 08:54:03;;;;;;;44.28;35.63;;;10.90;99.90;;;;;;5086974;28;20052;-73
2022/11/15 08:56:29;;;;;;;41.05;34.35;;;10.90;99.90;;;;;;5081171;28;20707;-76
2022/11/15 08:58:54;;;;;;;46.15;34.30;;;10.90;99.90;;;;;;5087403;28;20047;-81
2022/11/15 09:01:22;;;;;;;41.72;34.95;;;11.00;99.90;;;;;;5087602;28;20611;-82
2022/11/15 09:03:48;;;;;;;42.88;34.70;;;11.00;99.90;;;;;;5087708;28;20047;-81
2022/11/15 09:06:14;;;;;;;42.90;34.60;;;11.00;99.90;;;;;;5089127;28;20487;-82
2022/11/15 09:08:40;;;;;;;43.40;35.08;;;11.00;99.90;;;;;;5089090;28;20043;-82
2022/11/15 09:11:08;;;;;;;41.75;35.10;;;11.00;99.90;;;;;;5079429;28;20052;-86
2022/11/15 09:13:34;;;;;;;;;;;11.10;99.90;;;;;;5083520;28;20036;-82
2022/11/15 09:16:01;;;;;;;47.75;36.25;;;11.10;99.90;;;;;;5080210;28;19968;-84
2022/11/15 09:18:27;;;;;;;45.47;37.65;;;11.10;99.90;;;;;;5087921;28;20032;-84
2022/11/15 09:20:59;;;;;;;45.70;36.40;;;11.10;99.90;;;;;;5087355;28;20454;-76
2022/11/15 09:23:26;;;;;;;47.65;37.05;;;11.10;99.90;;;;;;5080425;28;20048;-86
2022/11/15 09:25:57;;;;;;;47.97;36.83;;;11.20;99.90;;;;;;5084879;28;20148;-80
2022/11/15 09:28:23;;;;;;;42.25;34.35;;;11.20;99.90;;;;;;5089119;28;20040;-84
2022/11/15 09:30:48;;;;;;;48.17;36.20;;;11.20;99.90;;;;;;5079850;28;20169;-86
2022/11/15 09:33:14;;;;;;;48.28;36.85;;;11.20;99.90;;;;;;5104010;27;21034;-84
2022/11/15 09:35:40;;;;;;;43.63;34.03;;;11.20;99.90;;;;;;5083702;28;20047;-82
2022/11/15 09:38:06;;;;;;;43.80;36.10;;;11.20;99.90;;;;;;5084778;28;20040;-79
2022/11/15 09:40:35;;;;;;;45.80;36.42;;;11.30;99.90;;;;;;5119556;27;20051;-88
2022/11/15 09:43:05;;;;;;;46.92;35.40;;;11.30;99.90;;;;;;5086103;28;20044;-76
2022/11/15 09:45:40;;;;;;;46.17;35.47;;;11.20;99.90;;;;;;5076365;28;20109;-75
2022/11/15 09:48:30;;;;;;;43.22;34.92;;;11.30;99.90;;;;;;5076474;28;20056;-77
2022/11/15 09:50:59;;;;;;;40.15;33.45;;;11.30;99.90;;;;;;5079173;28;20495;-77
2022/11/15 09:53:46;;;;;;;36.90;32.38;;;11.30;99.90;;;;;;5069324;28;20616;-73
2022/11/15 09:56:24;;;;;;;40.08;32.30;;;11.30;99.90;;;;;;5087009;28;20623;-78
2022/11/15 09:58:57;;;;;;;38.03;31.75;;;11.30;99.90;;;;;;5119566;27;20071;-78
2022/11/15 10:01:55;;;;;;;36.55;28.95;;;11.30;99.90;;;;;;5079625;28;20041;-76
2022/11/15 10:04:22;;;;;;;37.88;30.92;;;11.30;99.90;;;;;;5069974;28;20048;-76
2022/11/15 10:07:10;;;;;;;63.42;43.65;;;11.30;99.90;;;;;;5099788;28;20051;-76
2022/11/15 10:09:57;;;;;;;72.60;45.53;;;11.40;99.90;;;;;;5067515;28;20051;-76
2022/11/15 10:12:24;;;;;;;44.85;33.10;;;11.50;99.90;;;;;;5067633;28;20052;-76
2022/11/15 10:14:55;;;;;;;36.75;30.13;;;11.50;99.90;;;;;;5100598;28;20080;-76
2022/11/15 10:17:58;;;;;;;35.30;28.08;;;11.60;99.90;;;;;;5104569;28;20040;-76
2022/11/15 10:20:27;;;;;;;34.47;28.60;;;11.60;99.90;;;;;;5067368;28;20491;-76
2022/11/15 10:22:58;;;;;;;33.65;28.00;;;11.70;99.90;;;;;;5100792;28;20338;-76
2022/11/15 10:25:29;;;;;;;33.42;28.10;;;11.70;99.90;;;;;;5067685;28;20040;-76
2022/11/15 10:28:09;;;;;;;31.63;27.15;;;11.80;99.90;;;;;;5080331;28;20040;-76
2022/11/15 10:30:41;;;;;;;35.70;29.60;;;11.80;99.90;;;;;;5116873;28;20048;-76
2022/11/15 10:33:30;;;;;;;40.60;31.60;;;11.90;99.90;;;;;;5082082;28;20510;-81
2022/11/15 10:36:15;;;;;;;51.63;38.90;;;11.90;99.90;;;;;;5082536;28;20546;-81
2022/11/15 10:38:50;;;;;;;67.18;43.08;;;12.00;99.90;;;;;;5080143;28;20495;-81
2022/11/15 10:41:23;;;;;;;82.80;49.92;;;12.00;99.90;;;;;;5088631;28;20526;-80
2022/11/15 10:44:06;;;;;;;66.18;44.03;;;12.00;99.90;;;;;;5087444;28;20059;-81
2022/11/15 10:46:37;;;;;;;65.32;44.75;;;12.10;99.90;;;;;;5086685;28;20051;-77
2022/11/15 10:49:27;;;;;;;66.55;45.03;;;12.10;99.90;;;;;;5083689;28;20093;-74
2022/11/15 10:51:57;;;;;;;52.85;39.25;;;12.10;99.90;;;;;;5070328;28;20051;-74
2022/11/15 10:54:58;;;;;;;40.80;32.25;;;12.10;99.90;;;;;;5090467;28;20048;-74
2022/11/15 10:57:29;;;;;;;27.30;24.63;;;12.20;99.90;;;;;;5062360;28;20040;-77
2022/11/15 11:00:25;;;;;;;26.20;23.58;;;12.20;99.90;;;;;;5089282;28;20130;-74
2022/11/15 11:03:00;;;;;;;22.27;20.02;;;12.30;99.90;;;;;;5075892;28;20048;-76
2022/11/15 11:05:38;;;;;;;19.75;17.98;;;12.30;99.90;;;;;;5089986;28;20105;-74
2022/11/15 11:08:11;;;;;;;20.85;18.95;;;12.30;99.90;;;;;;5089234;28;20028;-77
2022/11/15 11:10:37;;;;;;;17.88;16.08;;;12.30;99.90;;;;;;5089392;28;20048;-81
2022/11/15 11:13:23;;;;;;;15.73;14.15;;;12.40;99.90;;;;;;5070397;28;20075;-76
2022/11/15 11:15:55;;;;;;;13.00;11.27;;;12.40;99.90;;;;;;5075409;28;20094;-73
2022/11/15 11:18:47;;;;;;;11.30;9.95;;;12.40;99.90;;;;;;5080764;28;20055;-75
2022/11/15 11:21:18;;;;;;;11.60;10.25;;;12.40;99.90;;;;;;5069026;28;20113;-78
2022/11/15 11:24:03;;;;;;;10.63;9.43;;;12.40;99.90;;;;;;5088836;28;20032;-75
2022/11/15 11:27:15;;;;;;;11.95;8.93;;;12.40;99.90;;;;;;5080278;28;20518;-77
2022/11/15 11:30:21;;;;;;;8.75;7.60;;;12.40;99.90;;;;;;5050227;28;20092;-74
2022/11/15 11:33:07;;;;;;;8.90;6.45;;;12.40;99.90;;;;;;5018125;28;20605;-73
2022/11/15 11:35:42;;;;;;;8.85;5.75;;;12.50;99.90;;;;;;5083949;28;20620;-76
2022/11/15 11:38:43;;;;;;;9.00;5.90;;;12.60;99.90;;;;;;5086143;28;20044;-81
2022/11/15 11:41:54;;;;;;;11.65;6.07;;;12.70;99.90;;;;;;5074162;28;20081;-78
2022/11/15 11:44:38;;;;;;;16.77;9.70;;;12.60;99.90;;;;;;5119275;27;20106;-80
2022/11/15 11:47:33;;;;;;;13.52;7.57;;;12.60;99.90;;;;;;5078319;28;20089;-76
2022/11/15 11:50:27;;;;;;;11.60;6.93;;;12.70;99.90;;;;;;5082404;28;20090;-75
2022/11/15 11:53:13;;;;;;;9.38;5.97;;;12.80;99.90;;;;;;5076058;28;20093;-79
2022/11/15 11:55:50;;;;;;;10.15;6.55;;;12.70;99.90;;;;;;5086928;28;20048;-78
2022/11/15 11:58:38;;;;;;;9.88;6.38;;;12.70;99.90;;;;;;5088091;28;20044;-78
2022/11/15 12:01:22;;;;;;;9.55;5.60;;;12.70;99.90;;;;;;5087576;28;20130;-78
2022/11/15 12:04:04;;;;;;;7.10;4.97;;;12.70;99.90;;;;;;5087556;28;20042;-78
2022/11/15 12:06:33;;;;;;;8.40;5.03;;;12.70;99.90;;;;;;5087474;28;20040;-78
2022/11/15 12:09:29;;;;;;;6.88;5.25;;;12.60;99.90;;;;;;5083876;28;20135;-78
2022/11/15 12:12:08;;;;;;;7.95;5.28;;;12.70;99.90;;;;;;5087799;28;20048;-78
2022/11/15 12:14:45;;;;;;;8.75;4.90;;;12.60;99.90;;;;;;5088744;28;20087;-77
2022/11/15 12:17:12;;;;;;;7.85;5.15;;;12.60;99.90;;;;;;5088371;28;20040;-78
2022/11/15 12:19:39;;;;;;;8.17;5.60;;;12.60;99.90;;;;;;5085156;28;20411;-78
2022/11/15 12:22:20;;;;;;;9.18;5.35;;;12.60;99.90;;;;;;5069150;28;20436;-77
2022/11/15 12:24:53;;;;;;;9.88;5.50;;;12.60;99.90;;;;;;5082884;28;20047;-79
2022/11/15 12:27:27;;;;;;;8.88;5.97;;;12.60;99.90;;;;;;5078716;28;20056;-78
2022/11/15 12:30:03;;;;;;;11.88;6.25;;;12.70;99.90;;;;;;5080474;28;20040;-75
2022/11/15 12:32:31;;;;;;;8.00;5.32;;;12.70;99.90;;;;;;5086783;28;20092;-75
2022/11/15 12:34:57;;;;;;;9.48;6.43;;;12.80;99.90;;;;;;5082854;28;20040;-76
2022/11/15 12:37:55;;;;;;;8.95;5.47;;;12.80;99.90;;;;;;5079731;28;20038;-80
2022/11/15 12:40:28;;;;;;;7.35;5.32;;;12.90;99.90;;;;;;5063459;28;20048;-79
2022/11/15 12:43:25;;;;;;;7.32;4.50;;;12.90;99.90;;;;;;5085283;28;20052;-78
2022/11/15 12:45:50;;;;;;;12.25;6.95;;;13.00;99.90;;;;;;5075542;28;20044;-78
2022/11/15 12:48:16;;;;;;;6.45;4.20;;;13.00;99.90;;;;;;5078748;28;20094;-77
2022/11/15 12:50:57;;;;;;;5.93;4.00;;;13.10;99.90;;;;;;5084856;28;20093;-80
2022/11/15 12:53:23;;;;;;;5.30;3.63;;;13.10;99.90;;;;;;5073922;28;20083;-79
2022/11/15 12:56:04;;;;;;;5.22;3.72;;;13.10;99.90;;;;;;5080017;28;20052;-79
2022/11/15 12:58:47;;;;;;;4.97;2.97;;;13.20;99.90;;;;;;5083041;28;20084;-83
2022/11/15 13:01:54;;;;;;;5.00;2.88;;;13.20;99.90;;;;;;5072020;28;20040;-78
2022/11/15 13:04:23;;;;;;;7.53;3.22;;;13.20;99.90;;;;;;5059854;28;20056;-76
2022/11/15 13:06:58;;;;;;;11.68;7.30;;;13.20;99.90;;;;;;5085153;28;20045;-80
2022/11/15 13:09:35;;;;;;;13.63;7.55;;;13.30;99.90;;;;;;5081421;28;20043;-78